Time;durP1;ratioP1;P1;durP2;ratioP2;P2;SDS_P1;SDS_P2;PMS_P1;PMS_P2;Temp;Humidity;BMP_temperature;BMP_pressure;BME280_temperature;BME280_humidity;BME280_pressure;Samples;Min_cycle;Max_cycle;Signal;HPM_P1;HPM_P2
2022/06/12 00:00:01;;;;;;;15.30;4.00;;;;;;;;;;4962572;28;20046;-73
2022/06/12 00:02:28;;;;;;;17.02;3.38;;;;;;;;;;4966024;28;20058;-73
2022/06/12 00:04:56;;;;;;;20.85;4.00;;;;;;;;;;4984568;28;20090;-73
2022/06/12 00:07:23;;;;;;;16.60;3.40;;;;;;;;;;4966865;28;20252;-73
2022/06/12 00:09:51;;;;;;;22.52;3.90;;;;;;;;;;4965406;28;20058;-73
2022/06/12 00:12:19;;;;;;;22.38;3.50;;;;;;;;;;4964498;28;20054;-73
2022/06/12 00:14:46;;;;;;;17.40;3.60;;;;;;;;;;4964614;28;20046;-73
2022/06/12 00:17:13;;;;;;;20.88;4.03;;;;;;;;;;4966537;28;20046;-73
2022/06/12 00:19:44;;;;;;;21.38;3.70;;;;;;;;;;4967424;28;20062;-73
2022/06/12 00:22:11;;;;;;;18.67;3.55;;;;;;;;;;4966304;28;20069;-73
2022/06/12 00:24:38;;;;;;;23.02;4.13;;;;;;;;;;4967562;28;20117;-73
2022/06/12 00:27:08;;;;;;;16.70;3.30;;;;;;;;;;4966839;28;20054;-73
2022/06/12 00:29:36;;;;;;;15.35;3.13;;;;;;;;;;4965593;28;20068;-73
2022/06/12 00:32:07;;;;;;;23.88;4.15;;;;;;;;;;4963100;28;20069;-73
2022/06/12 00:34:36;;;;;;;19.92;4.38;;;;;;;;;;4974874;28;20133;-72
2022/06/12 00:37:04;;;;;;;19.52;4.05;;;;;;;;;;4961599;28;20097;-73
2022/06/12 00:39:32;;;;;;;20.83;4.07;;;;;;;;;;4982960;28;20186;-73
2022/06/12 00:42:00;;;;;;;19.98;3.97;;;;;;;;;;4959688;28;20141;-72
2022/06/12 00:44:30;;;;;;;20.50;3.70;;;;;;;;;;4964961;28;20456;-73
2022/06/12 00:46:59;;;;;;;17.83;3.83;;;;;;;;;;4981179;28;20054;-73
2022/06/12 00:49:29;;;;;;;15.93;3.50;;;;;;;;;;4962119;28;20137;-73
2022/06/12 00:51:58;;;;;;;17.40;3.72;;;;;;;;;;4963000;28;20050;-73
2022/06/12 00:54:25;;;;;;;13.77;3.65;;;;;;;;;;4961109;28;20054;-73
2022/06/12 00:56:54;;;;;;;22.92;4.68;;;;;;;;;;4961905;28;20057;-73
2022/06/12 00:59:25;;;;;;;19.60;4.07;;;;;;;;;;4961922;28;20635;-73
2022/06/12 01:01:54;;;;;;;18.52;3.92;;;;;;;;;;4962707;28;20136;-73
2022/06/12 01:07:08;;;;;;;20.00;4.20;;;;;;;;;;4962655;28;21746;-72
2022/06/12 01:09:38;;;;;;;20.23;4.15;;;;;;;;;;4961044;28;20412;-72
2022/06/12 01:12:06;;;;;;;21.70;4.43;;;;;;;;;;4964346;28;20051;-72
2022/06/12 01:14:36;;;;;;;20.10;4.05;;;;;;;;;;4960198;28;20065;-73
2022/06/12 01:17:07;;;;;;;19.85;4.10;;;;;;;;;;4962657;28;20057;-73
2022/06/12 01:19:37;;;;;;;26.42;4.78;;;;;;;;;;4960106;28;20742;-73
2022/06/12 01:22:33;;;;;;;22.05;4.15;;;;;;;;;;4960144;28;20082;-73
2022/06/12 01:25:09;;;;;;;23.77;4.18;;;;;;;;;;4962888;28;20108;-73
2022/06/12 01:27:52;;;;;;;26.58;5.43;;;;;;;;;;4964762;28;20054;-73
2022/06/12 01:30:23;;;;;;;24.27;4.75;;;;;;;;;;4960509;28;20078;-73
2022/06/12 01:32:55;;;;;;;22.10;4.47;;;;;;;;;;4959673;28;20054;-73
2022/06/12 01:35:27;;;;;;;23.75;4.53;;;;;;;;;;4963162;28;20516;-73
2022/06/12 01:38:02;;;;;;;25.02;4.53;;;;;;;;;;4957146;28;20105;-73
2022/06/12 01:40:33;;;;;;;18.83;4.15;;;;;;;;;;4962472;28;20062;-73
2022/06/12 01:43:03;;;;;;;24.15;4.15;;;;;;;;;;4962995;28;20145;-73
2022/06/12 01:45:38;;;;;;;21.35;4.07;;;;;;;;;;4964871;28;20054;-73
2022/06/12 01:48:11;;;;;;;20.05;4.20;;;;;;;;;;4961055;28;20054;-73
2022/06/12 01:50:41;;;;;;;19.45;4.03;;;;;;;;;;4964375;28;20064;-73
2022/06/12 01:53:13;;;;;;;19.20;4.13;;;;;;;;;;4962164;28;20401;-73
2022/06/12 01:55:45;;;;;;;22.60;4.32;;;;;;;;;;4961320;28;20062;-73
2022/06/12 01:58:15;;;;;;;27.58;4.50;;;;;;;;;;4963299;28;20440;-72
2022/06/12 02:00:47;;;;;;;20.05;4.70;;;;;;;;;;4961881;28;20057;-72
2022/06/12 02:03:17;;;;;;;20.08;4.15;;;;;;;;;;4962190;28;20058;-72
2022/06/12 02:05:46;;;;;;;22.95;4.55;;;;;;;;;;4962814;28;20070;-72
2022/06/12 02:08:16;;;;;;;19.25;4.20;;;;;;;;;;4962640;28;20054;-72
2022/06/12 02:10:45;;;;;;;22.30;4.47;;;;;;;;;;4959907;28;20065;-72
2022/06/12 02:13:16;;;;;;;25.98;4.28;;;;;;;;;;4961985;28;20477;-72
2022/06/12 02:15:47;;;;;;;20.98;4.40;;;;;;;;;;4962480;28;20080;-73
2022/06/12 02:18:20;;;;;;;21.40;4.90;;;;;;;;;;4961794;28;20054;-72
2022/06/12 02:20:52;;;;;;;28.73;4.95;;;;;;;;;;4961970;28;20145;-72
2022/06/12 02:23:22;;;;;;;23.00;4.57;;;;;;;;;;4962988;28;21024;-72
2022/06/12 02:25:52;;;;;;;25.00;4.75;;;;;;;;;;4960600;28;20058;-72
2022/06/12 02:28:21;;;;;;;20.60;4.43;;;;;;;;;;4957509;28;20054;-72
2022/06/12 02:30:52;;;;;;;31.95;5.63;;;;;;;;;;4962904;28;20078;-72
2022/06/12 02:33:21;;;;;;;28.83;4.70;;;;;;;;;;4962038;28;20058;-72
2022/06/12 02:35:49;;;;;;;31.25;5.30;;;;;;;;;;4960098;28;20050;-72
2022/06/12 02:38:19;;;;;;;22.90;5.15;;;;;;;;;;4959860;28;20054;-72
2022/06/12 02:40:49;;;;;;;27.88;5.10;;;;;;;;;;4960505;28;20050;-72
2022/06/12 02:43:20;;;;;;;23.85;4.60;;;;;;;;;;4961765;28;20116;-72
2022/06/12 02:45:51;;;;;;;24.55;4.88;;;;;;;;;;4957434;28;20062;-73
2022/06/12 02:48:21;;;;;;;34.83;5.65;;;;;;;;;;4959122;28;20046;-73
2022/06/12 02:50:55;;;;;;;26.73;4.43;;;;;;;;;;4963451;28;21603;-73
2022/06/12 02:53:25;;;;;;;31.05;5.25;;;;;;;;;;4959371;28;20062;-73
2022/06/12 02:55:57;;;;;;;23.83;4.60;;;;;;;;;;4962199;28;20120;-73
2022/06/12 02:58:30;;;;;;;24.60;4.43;;;;;;;;;;4963289;28;20066;-73
2022/06/12 03:00:59;;;;;;;27.70;5.37;;;;;;;;;;4960617;28;20046;-73
2022/06/12 03:03:32;;;;;;;26.73;4.90;;;;;;;;;;4962093;28;20117;-73
2022/06/12 03:06:00;;;;;;;26.65;5.85;;;;;;;;;;4962787;28;20480;-73
2022/06/12 03:08:29;;;;;;;25.23;4.70;;;;;;;;;;4961525;28;20096;-73
2022/06/12 03:10:58;;;;;;;25.15;4.85;;;;;;;;;;4960843;28;20046;-73
2022/06/12 03:13:27;;;;;;;31.17;5.32;;;;;;;;;;4960321;28;20444;-73
2022/06/12 03:15:56;;;;;;;22.83;5.35;;;;;;;;;;4961125;28;20054;-73
2022/06/12 03:18:26;;;;;;;28.05;5.20;;;;;;;;;;4961460;28;20105;-73
2022/06/12 03:21:05;;;;;;;24.77;5.30;;;;;;;;;;4962959;28;20042;-73
2022/06/12 03:23:38;;;;;;;28.08;4.85;;;;;;;;;;4959471;28;20160;-73
2022/06/12 03:26:08;;;;;;;33.72;6.13;;;;;;;;;;4961503;28;20050;-73
2022/06/12 03:28:37;;;;;;;34.90;5.95;;;;;;;;;;4960459;28;20050;-73
2022/06/12 03:31:07;;;;;;;30.05;5.38;;;;;;;;;;4962983;28;20058;-73
2022/06/12 03:33:37;;;;;;;28.65;5.93;;;;;;;;;;4962410;28;20564;-73
2022/06/12 03:36:08;;;;;;;31.95;5.25;;;;;;;;;;4961954;28;20156;-73
2022/06/12 03:38:39;;;;;;;26.58;5.15;;;;;;;;;;4964150;28;20062;-73
2022/06/12 03:41:13;;;;;;;28.00;5.38;;;;;;;;;;4963934;28;20072;-73
2022/06/12 03:43:42;;;;;;;29.75;5.82;;;;;;;;;;4962458;28;20055;-73
2022/06/12 03:46:14;;;;;;;28.50;5.40;;;;;;;;;;4962397;28;20058;-72
2022/06/12 03:48:45;;;;;;;36.13;6.10;;;;;;;;;;4962947;28;20050;-73
2022/06/12 03:51:16;;;;;;;31.48;5.93;;;;;;;;;;4965996;28;20046;-73
2022/06/12 03:53:46;;;;;;;33.70;6.30;;;;;;;;;;4961185;28;20051;-73
2022/06/12 03:59:03;;;;;;;29.40;5.78;;;;;;;;;;4964003;28;20188;-73
2022/06/12 04:01:32;;;;;;;25.77;5.60;;;;;;;;;;4960202;28;20058;-73
2022/06/12 04:04:00;;;;;;;36.75;5.93;;;;;;;;;;4960698;28;20165;-73
2022/06/12 04:06:29;;;;;;;32.72;6.18;;;;;;;;;;4964713;28;20496;-73
2022/06/12 04:09:00;;;;;;;33.03;5.65;;;;;;;;;;4965743;28;20046;-73
2022/06/12 04:11:28;;;;;;;32.83;5.90;;;;;;;;;;4963648;28;20054;-73
2022/06/12 04:13:58;;;;;;;31.25;6.15;;;;;;;;;;4966661;28;20051;-73
2022/06/12 04:16:30;;;;;;;33.17;5.68;;;;;;;;;;4965282;28;20081;-73
2022/06/12 04:18:57;;;;;;;32.60;5.57;;;;;;;;;;4965442;28;20109;-73
2022/06/12 04:21:27;;;;;;;31.17;6.20;;;;;;;;;;4965706;28;20046;-73
2022/06/12 04:23:59;;;;;;;40.65;6.88;;;;;;;;;;4962591;28;20749;-73
2022/06/12 04:26:30;;;;;;;32.00;5.57;;;;;;;;;;4962330;28;20042;-73
2022/06/12 04:28:59;;;;;;;35.28;6.38;;;;;;;;;;4963989;28;20058;-73
2022/06/12 04:31:27;;;;;;;34.47;5.97;;;;;;;;;;4964941;28;20108;-73
2022/06/12 04:34:01;;;;;;;41.03;7.13;;;;;;;;;;4963945;28;20123;-73
2022/06/12 04:36:28;;;;;;;35.90;7.00;;;;;;;;;;4964502;28;20724;-73
2022/06/12 04:38:57;;;;;;;37.03;5.93;;;;;;;;;;4964945;28;20062;-73
2022/06/12 04:41:25;;;;;;;43.13;6.75;;;;;;;;;;4962997;28;20062;-73
2022/06/12 04:43:52;;;;;;;33.92;6.57;;;;;;;;;;4965888;28;20054;-73
2022/06/12 04:46:20;;;;;;;33.90;6.85;;;;;;;;;;4966317;28;20469;-73
2022/06/12 04:48:49;;;;;;;35.90;7.10;;;;;;;;;;4963833;28;20050;-73
2022/06/12 04:51:16;;;;;;;38.50;6.82;;;;;;;;;;4964072;28;20050;-73
2022/06/12 04:53:45;;;;;;;33.00;6.30;;;;;;;;;;4963310;28;20054;-73
2022/06/12 04:56:14;;;;;;;37.92;6.60;;;;;;;;;;4962712;28;20064;-73
2022/06/12 04:58:42;;;;;;;30.67;6.13;;;;;;;;;;4965123;28;20054;-73
2022/06/12 05:01:09;;;;;;;36.35;6.88;;;;;;;;;;4964391;28;20042;-73
2022/06/12 05:03:37;;;;;;;40.30;7.00;;;;;;;;;;4963801;28;20109;-73
2022/06/12 05:06:04;;;;;;;29.60;6.38;;;;;;;;;;4965752;28;20055;-73
2022/06/12 05:08:35;;;;;;;34.85;6.82;;;;;;;;;;4966029;28;20057;-73
2022/06/12 05:11:03;;;;;;;36.97;6.72;;;;;;;;;;4962776;28;20042;-73
2022/06/12 05:13:31;;;;;;;37.78;7.05;;;;;;;;;;4964125;28;20523;-73
2022/06/12 05:15:59;;;;;;;37.40;7.10;;;;;;;;;;4965082;28;20504;-73
2022/06/12 05:18:28;;;;;;;37.00;7.20;;;;;;;;;;4964437;28;20100;-73
2022/06/12 05:20:57;;;;;;;41.72;7.38;;;;;;;;;;4958536;28;20062;-73
2022/06/12 05:23:24;;;;;;;41.38;7.25;;;;;;;;;;4963902;28;20509;-73
2022/06/12 05:25:52;;;;;;;38.63;7.40;;;;;;;;;;4964389;28;20058;-73
2022/06/12 05:28:20;;;;;;;42.55;7.97;;;;;;;;;;4960427;28;20522;-73
2022/06/12 05:30:49;;;;;;;44.70;8.57;;;;;;;;;;4960363;28;20097;-73
2022/06/12 05:33:16;;;;;;;45.33;7.72;;;;;;;;;;4961272;28;20089;-73
2022/06/12 05:35:43;;;;;;;43.75;8.43;;;;;;;;;;4961033;28;20453;-73
2022/06/12 05:38:11;;;;;;;49.78;8.88;;;;;;;;;;4958366;28;20540;-73
2022/06/12 05:40:40;;;;;;;40.72;7.85;;;;;;;;;;4965310;28;20062;-74
2022/06/12 05:43:08;;;;;;;42.33;9.52;;;;;;;;;;4961633;28;20077;-74
2022/06/12 05:45:36;;;;;;;41.53;8.65;;;;;;;;;;4966936;28;20133;-73
2022/06/12 05:48:07;;;;;;;37.22;8.13;;;;;;;;;;4967377;28;20116;-73
2022/06/12 05:50:35;;;;;;;40.78;7.43;;;;;;;;;;4966586;28;20050;-73
2022/06/12 05:53:02;;;;;;;47.17;8.90;;;;;;;;;;4965328;28;20066;-73
2022/06/12 05:55:30;;;;;;;50.83;10.32;;;;;;;;;;4964109;28;20140;-73
2022/06/12 05:57:57;;;;;;;42.78;8.15;;;;;;;;;;4964637;28;20043;-73
2022/06/12 06:00:27;;;;;;;38.72;8.32;;;;;;;;;;4967305;28;20050;-73
2022/06/12 06:02:54;;;;;;;46.28;8.68;;;;;;;;;;4965949;28;20066;-73
2022/06/12 06:05:23;;;;;;;47.72;7.60;;;;;;;;;;4962528;28;20061;-73
2022/06/12 06:07:50;;;;;;;41.70;7.80;;;;;;;;;;4966108;28;20124;-73
2022/06/12 06:10:19;;;;;;;35.42;7.20;;;;;;;;;;4962203;28;20124;-73
2022/06/12 06:12:47;;;;;;;36.40;8.10;;;;;;;;;;4967136;28;20066;-73
2022/06/12 06:15:15;;;;;;;40.08;8.25;;;;;;;;;;4965293;28;20090;-73
2022/06/12 06:17:42;;;;;;;34.63;6.85;;;;;;;;;;4968567;28;20050;-73
2022/06/12 06:20:11;;;;;;;37.90;7.07;;;;;;;;;;4960374;28;20061;-73
2022/06/12 06:22:39;;;;;;;45.10;7.82;;;;;;;;;;4962432;28;20046;-73
2022/06/12 06:25:07;;;;;;;35.88;6.50;;;;;;;;;;4961551;28;20085;-73
2022/06/12 06:27:34;;;;;;;35.42;6.75;;;;;;;;;;4959942;28;20059;-73
2022/06/12 06:30:02;;;;;;;35.65;7.13;;;;;;;;;;4961376;28;20367;-73
2022/06/12 06:32:29;;;;;;;30.98;6.25;;;;;;;;;;4961739;28;20086;-73
2022/06/12 06:34:56;;;;;;;33.72;6.00;;;;;;;;;;4962544;28;20517;-73
2022/06/12 06:37:23;;;;;;;27.27;5.40;;;;;;;;;;4958834;28;20042;-73
2022/06/12 06:39:52;;;;;;;33.63;6.00;;;;;;;;;;4960828;28;20112;-73
2022/06/12 06:42:19;;;;;;;30.15;5.97;;;;;;;;;;4961835;28;20509;-73
2022/06/12 06:47:31;;;;;;;37.78;6.03;;;;;;;;;;4959788;28;20485;-73
2022/06/12 06:49:59;;;;;;;27.27;5.50;;;;;;;;;;4963631;28;20056;-73
2022/06/12 06:52:26;;;;;;;31.67;5.85;;;;;;;;;;4966853;28;20046;-73
2022/06/12 06:54:55;;;;;;;20.98;4.30;;;;;;;;;;4960229;28;20575;-73
2022/06/12 06:57:22;;;;;;;20.98;5.00;;;;;;;;;;4965630;28;20057;-73
2022/06/12 06:59:49;;;;;;;19.40;3.78;;;;;;;;;;4969691;28;20524;-73
2022/06/12 07:02:16;;;;;;;20.15;4.22;;;;;;;;;;4963276;28;20054;-73
2022/06/12 07:04:44;;;;;;;17.83;3.83;;;;;;;;;;4969264;28;20062;-73
2022/06/12 07:07:11;;;;;;;23.88;3.92;;;;;;;;;;4963661;28;20054;-73
2022/06/12 07:09:39;;;;;;;22.25;3.92;;;;;;;;;;4962501;28;20513;-73
2022/06/12 07:12:09;;;;;;;20.17;4.10;;;;;;;;;;4968551;28;20054;-73
2022/06/12 07:14:36;;;;;;;19.00;4.32;;;;;;;;;;4985683;28;20043;-73
2022/06/12 07:17:03;;;;;;;18.92;3.80;;;;;;;;;;4969614;28;20054;-73
2022/06/12 07:19:31;;;;;;;19.08;4.30;;;;;;;;;;4965093;28;20061;-73
2022/06/12 07:21:58;;;;;;;15.43;3.38;;;;;;;;;;4974054;28;20046;-73
2022/06/12 07:24:25;;;;;;;11.38;2.60;;;;;;;;;;4969749;28;20610;-73
2022/06/12 07:26:53;;;;;;;11.77;2.83;;;;;;;;;;4972387;28;20050;-73
2022/06/12 07:29:22;;;;;;;14.70;3.53;;;;;;;;;;4964820;28;20050;-73
2022/06/12 07:31:50;;;;;;;13.60;3.10;;;;;;;;;;4975517;28;20046;-73
2022/06/12 07:34:17;;;;;;;14.40;3.45;;;;;;;;;;4969512;28;20405;-73
2022/06/12 07:36:46;;;;;;;15.63;3.55;;;;;;;;;;4971182;28;20061;-73
2022/06/12 07:39:16;;;;;;;11.32;2.90;;;;;;;;;;4967475;28;20046;-73
2022/06/12 07:41:44;;;;;;;13.13;2.80;;;;;;;;;;4972984;28;20058;-73
2022/06/12 07:44:13;;;;;;;13.27;2.60;;;;;;;;;;4970963;28;20117;-73
2022/06/12 07:46:41;;;;;;;14.27;2.60;;;;;;;;;;4972756;28;20054;-73
2022/06/12 07:49:09;;;;;;;14.55;3.25;;;;;;;;;;4970100;28;20054;-73
2022/06/12 07:51:36;;;;;;;12.95;3.17;;;;;;;;;;4964836;28;20062;-73
2022/06/12 07:54:03;;;;;;;15.57;2.90;;;;;;;;;;4963346;28;20584;-73
2022/06/12 07:56:30;;;;;;;14.63;3.13;;;;;;;;;;4970266;28;20050;-73
2022/06/12 07:58:58;;;;;;;17.10;3.38;;;;;;;;;;4973258;28;20050;-73
2022/06/12 08:01:26;;;;;;;15.75;3.28;;;;;;;;;;4977089;28;20128;-73
2022/06/12 08:03:55;;;;;;;10.88;2.67;;;;;;;;;;4973899;28;20046;-73
2022/06/12 08:06:22;;;;;;;14.93;3.05;;;;;;;;;;4972617;28;20058;-73
2022/06/12 08:08:49;;;;;;;8.35;2.65;;;;;;;;;;4973340;28;20093;-73
2022/06/12 08:11:16;;;;;;;10.80;2.58;;;;;;;;;;4964097;28;20105;-73
2022/06/12 08:13:44;;;;;;;11.35;3.00;;;;;;;;;;4969147;28;20563;-73
2022/06/12 08:16:11;;;;;;;14.65;2.72;;;;;;;;;;4968860;28;20054;-73
2022/06/12 08:18:38;;;;;;;12.70;2.50;;;;;;;;;;4968440;28;20057;-73
2022/06/12 08:21:09;;;;;;;8.95;2.63;;;;;;;;;;4965915;28;20046;-73
2022/06/12 08:23:39;;;;;;;10.18;2.50;;;;;;;;;;4969999;28;20061;-73
2022/06/12 08:26:08;;;;;;;7.93;2.28;;;;;;;;;;4966118;28;20884;-73
2022/06/12 08:28:37;;;;;;;10.38;2.70;;;;;;;;;;4968230;28;20097;-73
2022/06/12 08:31:06;;;;;;;11.90;2.50;;;;;;;;;;4966982;28;20046;-73
2022/06/12 08:33:33;;;;;;;11.88;3.13;;;;;;;;;;4969112;28;20058;-73
2022/06/12 08:36:01;;;;;;;9.93;2.92;;;;;;;;;;4967968;28;20046;-73
2022/06/12 08:38:30;;;;;;;10.27;2.72;;;;;;;;;;4960492;28;20789;-73
2022/06/12 08:40:59;;;;;;;10.07;2.85;;;;;;;;;;4958305;28;20062;-73
2022/06/12 08:43:31;;;;;;;12.00;2.90;;;;;;;;;;4960807;28;20104;-74
2022/06/12 08:46:00;;;;;;;12.45;2.92;;;;;;;;;;4959456;28;20137;-73
2022/06/12 08:48:30;;;;;;;7.63;2.38;;;;;;;;;;4958573;28;20062;-73
2022/06/12 08:50:59;;;;;;;9.57;2.80;;;;;;;;;;4965611;28;20054;-73
2022/06/12 08:53:32;;;;;;;10.20;2.50;;;;;;;;;;4965091;28;20063;-73
2022/06/12 08:56:05;;;;;;;8.50;2.25;;;;;;;;;;4967357;28;20054;-73
2022/06/12 08:58:34;;;;;;;12.55;2.58;;;;;;;;;;4967973;28;20047;-73
2022/06/12 09:01:02;;;;;;;10.85;2.28;;;;;;;;;;4967298;28;20120;-73
2022/06/12 09:03:38;;;;;;;14.80;3.47;;;;;;;;;;4965883;28;20996;-73
2022/06/12 09:06:09;;;;;;;14.30;2.97;;;;;;;;;;4966455;28;20433;-73
2022/06/12 09:08:40;;;;;;;11.18;2.50;;;;;;;;;;4968259;28;20855;-73
2022/06/12 09:11:15;;;;;;;8.75;2.60;;;;;;;;;;4967590;28;20460;-73
2022/06/12 09:13:49;;;;;;;11.95;2.97;;;;;;;;;;4967744;28;20054;-73
2022/06/12 09:16:20;;;;;;;13.48;2.67;;;;;;;;;;4966108;28;20062;-73
2022/06/12 09:18:53;;;;;;;15.27;3.50;;;;;;;;;;4966789;28;20062;-73
2022/06/12 09:21:22;;;;;;;12.15;2.88;;;;;;;;;;4964509;28;20062;-73
2022/06/12 09:23:54;;;;;;;13.25;3.13;;;;;;;;;;4969540;28;20058;-73
2022/06/12 09:26:24;;;;;;;13.45;3.00;;;;;;;;;;4966655;28;20077;-73
2022/06/12 09:28:54;;;;;;;16.77;4.15;;;;;;;;;;4967943;28;20121;-73
2022/06/12 09:31:24;;;;;;;12.35;3.05;;;;;;;;;;4988555;28;20046;-73
2022/06/12 09:33:56;;;;;;;9.07;2.72;;;;;;;;;;4967466;28;20053;-73
2022/06/12 09:36:35;;;;;;;10.80;2.80;;;;;;;;;;4967238;28;20229;-73
2022/06/12 09:39:07;;;;;;;16.65;3.30;;;;;;;;;;4969501;28;20054;-73
2022/06/12 09:41:45;;;;;;;14.32;3.20;;;;;;;;;;4972229;28;20050;-73
2022/06/12 09:44:14;;;;;;;9.27;2.50;;;;;;;;;;4967624;28;20104;-73
2022/06/12 09:46:45;;;;;;;13.63;3.00;;;;;;;;;;4965582;28;20054;-73
2022/06/12 09:49:21;;;;;;;14.75;3.38;;;;;;;;;;4965469;28;20838;-73
2022/06/12 09:52:04;;;;;;;12.65;3.40;;;;;;;;;;4971524;28;20058;-73
2022/06/12 09:54:43;;;;;;;13.35;3.72;;;;;;;;;;4969065;28;20454;-73
2022/06/12 09:57:18;;;;;;;15.10;3.85;;;;;;;;;;4969472;28;20137;-73
2022/06/12 09:59:49;;;;;;;12.57;3.20;;;;;;;;;;4968163;28;20074;-73
2022/06/12 10:02:18;;;;;;;17.17;3.65;;;;;;;;;;4971600;28;20050;-73
2022/06/12 10:04:49;;;;;;;14.90;3.72;;;;;;;;;;4968955;28;20062;-73
2022/06/12 10:07:19;;;;;;;15.90;3.72;;;;;;;;;;4970212;28;20137;-73
2022/06/12 10:09:49;;;;;;;15.70;4.00;;;;;;;;;;4969705;28;20042;-73
2022/06/12 10:12:19;;;;;;;12.77;3.05;;;;;;;;;;4971230;28;20090;-73
2022/06/12 10:14:48;;;;;;;16.27;4.47;;;;;;;;;;4968274;28;20059;-74
2022/06/12 10:17:17;;;;;;;13.23;3.63;;;;;;;;;;4968285;28;20046;-73
2022/06/12 10:19:47;;;;;;;16.30;3.92;;;;;;;;;;4969082;28;20098;-74
2022/06/12 10:22:17;;;;;;;13.88;3.58;;;;;;;;;;4970247;28;20049;-73
2022/06/12 10:24:44;;;;;;;14.45;3.45;;;;;;;;;;4973045;28;20054;-74
2022/06/12 10:27:12;;;;;;;19.10;4.35;;;;;;;;;;4970973;28;20054;-74
2022/06/12 10:29:46;;;;;;;10.35;3.38;;;;;;;;;;4970691;28;20050;-73
2022/06/12 10:32:15;;;;;;;11.23;3.15;;;;;;;;;;4969619;28;20059;-73
2022/06/12 10:34:42;;;;;;;11.10;3.38;;;;;;;;;;4968734;28;20065;-73
2022/06/12 10:37:10;;;;;;;16.80;3.78;;;;;;;;;;4966678;28;20055;-74
2022/06/12 10:39:40;;;;;;;14.90;3.50;;;;;;;;;;4965055;28;20057;-74
2022/06/12 10:42:09;;;;;;;13.13;3.30;;;;;;;;;;4968164;28;20292;-74
2022/06/12 10:44:40;;;;;;;14.63;3.85;;;;;;;;;;4971405;28;20058;-73
2022/06/12 10:47:20;;;;;;;14.77;3.58;;;;;;;;;;4968910;28;20062;-73
2022/06/12 10:49:47;;;;;;;12.88;3.40;;;;;;;;;;4970508;28;20389;-74
2022/06/12 10:52:16;;;;;;;13.48;3.40;;;;;;;;;;4969957;28;20050;-73
2022/06/12 10:54:45;;;;;;;15.68;3.58;;;;;;;;;;4968904;28;20184;-74
2022/06/12 10:57:19;;;;;;;14.30;3.30;;;;;;;;;;4985009;28;20124;-74
2022/06/12 10:59:49;;;;;;;15.43;3.60;;;;;;;;;;4967460;28;20090;-73
2022/06/12 11:02:37;;;;;;;13.60;3.55;;;;;;;;;;4972216;28;20053;-74
2022/06/12 11:05:14;;;;;;;11.25;3.22;;;;;;;;;;4944639;28;20054;-74
2022/06/12 11:07:45;;;;;;;16.77;3.70;;;;;;;;;;4978093;28;20445;-73
2022/06/12 11:10:23;;;;;;;14.00;3.40;;;;;;;;;;4968008;28;20046;-73
2022/06/12 11:12:55;;;;;;;13.32;3.55;;;;;;;;;;4969737;28;20050;-74
2022/06/12 11:15:30;;;;;;;15.85;3.60;;;;;;;;;;4968166;28;20057;-74
2022/06/12 11:18:01;;;;;;;12.48;3.33;;;;;;;;;;4969746;28;20066;-74
2022/06/12 11:20:33;;;;;;;10.05;2.85;;;;;;;;;;4969419;28;20054;-74
2022/06/12 11:23:14;;;;;;;12.88;3.40;;;;;;;;;;4968401;28;20226;-74
2022/06/12 11:25:49;;;;;;;13.00;3.47;;;;;;;;;;4972258;28;20493;-74
2022/06/12 11:28:21;;;;;;;11.85;2.88;;;;;;;;;;4968200;28;20042;-74
2022/06/12 11:30:53;;;;;;;11.65;3.45;;;;;;;;;;4968383;28;20046;-74
2022/06/12 11:33:39;;;;;;;12.85;3.42;;;;;;;;;;4969979;28;20441;-74
2022/06/12 11:36:11;;;;;;;14.25;3.88;;;;;;;;;;4968907;28;20054;-74
2022/06/12 11:38:57;;;;;;;12.52;3.05;;;;;;;;;;4970415;28;20070;-74
2022/06/12 11:41:27;;;;;;;13.25;3.50;;;;;;;;;;4970393;28;20057;-73
2022/06/12 11:43:58;;;;;;;13.15;3.00;;;;;;;;;;4967672;28;20053;-73
2022/06/12 11:46:30;;;;;;;13.52;3.13;;;;;;;;;;4969434;28;20464;-74
2022/06/12 11:49:10;;;;;;;7.83;3.00;;;;;;;;;;4967582;28;20046;-74
2022/06/12 11:51:43;;;;;;;11.93;3.30;;;;;;;;;;4969479;28;20076;-74
2022/06/12 11:54:25;;;;;;;9.07;2.83;;;;;;;;;;4969121;28;20082;-74
2022/06/12 11:56:57;;;;;;;11.32;2.78;;;;;;;;;;4968496;28;20528;-74
2022/06/12 11:59:25;;;;;;;;;;;;;;;;;;4969038;28;20039;-74
2022/06/12 12:02:01;;;;;;;11.10;3.25;;;;;;;;;;4969588;28;19936;-74
2022/06/12 12:04:43;;;;;;;12.70;3.50;;;;;;;;;;4968011;28;20600;-74
2022/06/12 12:07:19;;;;;;;10.25;3.20;;;;;;;;;;4976974;28;20057;-74
2022/06/12 12:10:00;;;;;;;10.75;3.20;;;;;;;;;;4976773;28;20489;-74
2022/06/12 12:12:30;;;;;;;14.02;3.25;;;;;;;;;;4969886;28;20517;-74
2022/06/12 12:14:59;;;;;;;11.77;3.28;;;;;;;;;;4968968;28;20051;-74
2022/06/12 12:17:29;;;;;;;16.05;3.88;;;;;;;;;;4967992;28;20489;-74
2022/06/12 12:19:57;;;;;;;12.68;3.35;;;;;;;;;;4973616;28;20076;-74
2022/06/12 12:22:32;;;;;;;16.98;4.20;;;;;;;;;;4970893;28;20050;-74
2022/06/12 12:25:01;;;;;;;14.05;3.90;;;;;;;;;;4967949;28;20050;-74
2022/06/12 12:27:31;;;;;;;12.50;3.80;;;;;;;;;;4970945;28;20061;-74
2022/06/12 12:29:59;;;;;;;13.60;3.53;;;;;;;;;;4972818;28;20129;-74
2022/06/12 12:32:27;;;;;;;7.82;2.90;;;;;;;;;;4970440;28;20581;-74
2022/06/12 12:34:55;;;;;;;13.90;3.35;;;;;;;;;;4972812;28;20077;-74
2022/06/12 12:43:14;;;;;;;12.35;3.05;;;;;;;;;;4971675;28;20405;-74
2022/06/12 12:45:42;;;;;;;11.75;3.15;;;;;;;;;;4970458;28;20086;-74
2022/06/12 12:48:10;;;;;;;13.13;4.20;;;;;;;;;;4972283;28;20054;-73
2022/06/12 12:50:46;;;;;;;12.60;3.58;;;;;;;;;;4971657;28;20405;-74
2022/06/12 12:53:24;;;;;;;9.63;3.15;;;;;;;;;;4969557;28;20058;-74
2022/06/12 12:56:00;;;;;;;11.90;3.25;;;;;;;;;;4971962;28;20536;-74
2022/06/12 12:58:28;;;;;;;14.23;3.63;;;;;;;;;;4971049;28;20050;-74
2022/06/12 13:01:02;;;;;;;12.88;3.60;;;;;;;;;;4972657;28;20046;-75
2022/06/12 13:03:30;;;;;;;11.68;3.63;;;;;;;;;;4971559;28;20059;-74
2022/06/12 13:06:01;;;;;;;14.15;3.47;;;;;;;;;;4975375;28;20062;-74
2022/06/12 13:08:41;;;;;;;11.95;3.50;;;;;;;;;;4975044;28;20061;-74
2022/06/12 13:11:15;;;;;;;14.13;3.65;;;;;;;;;;4970154;28;20073;-74
2022/06/12 13:13:50;;;;;;;14.27;3.78;;;;;;;;;;4967184;28;20057;-74
2022/06/12 13:16:19;;;;;;;14.93;3.83;;;;;;;;;;4968774;28;20064;-74
2022/06/12 13:18:56;;;;;;;13.63;4.10;;;;;;;;;;4971742;28;20449;-74
2022/06/12 13:21:26;;;;;;;14.32;3.80;;;;;;;;;;4973375;28;20154;-74
2022/06/12 13:24:03;;;;;;;23.75;4.50;;;;;;;;;;4972444;28;20050;-74
2022/06/12 13:26:34;;;;;;;11.95;3.45;;;;;;;;;;4972091;28;20380;-74
2022/06/12 13:29:03;;;;;;;15.38;3.35;;;;;;;;;;4980501;28;20058;-74
2022/06/12 13:31:33;;;;;;;12.77;3.55;;;;;;;;;;4971124;28;20050;-73
2022/06/12 13:34:01;;;;;;;12.35;3.20;;;;;;;;;;4968381;28;20046;-74
2022/06/12 13:36:30;;;;;;;9.00;2.90;;;;;;;;;;4971257;28;20129;-74
2022/06/12 13:38:59;;;;;;;12.48;3.50;;;;;;;;;;4968550;28;21539;-74
2022/06/12 13:41:28;;;;;;;10.70;3.03;;;;;;;;;;4967995;28;20047;-74
2022/06/12 13:43:57;;;;;;;13.77;3.13;;;;;;;;;;4969663;28;20114;-75
2022/06/12 13:46:26;;;;;;;7.80;2.78;;;;;;;;;;4970944;28;20105;-74
2022/06/12 13:48:54;;;;;;;10.57;3.33;;;;;;;;;;4966864;28;20190;-74
2022/06/12 13:51:39;;;;;;;8.25;2.63;;;;;;;;;;4971433;28;20057;-74
2022/06/12 13:54:14;;;;;;;12.30;3.80;;;;;;;;;;4967866;28;20058;-74
2022/06/12 13:56:43;;;;;;;14.20;3.47;;;;;;;;;;4977360;28;20041;-74
2022/06/12 13:59:15;;;;;;;13.70;3.38;;;;;;;;;;4971363;28;20061;-74
2022/06/12 14:01:42;;;;;;;16.00;3.60;;;;;;;;;;4970183;28;20047;-73
2022/06/12 14:04:19;;;;;;;14.98;3.30;;;;;;;;;;4971237;28;20409;-74
2022/06/12 14:06:47;;;;;;;11.90;3.00;;;;;;;;;;4970830;28;20054;-74
2022/06/12 14:09:16;;;;;;;15.35;3.10;;;;;;;;;;4971170;28;20440;-74
2022/06/12 14:11:44;;;;;;;11.82;3.53;;;;;;;;;;4970278;28;20101;-74
2022/06/12 14:14:29;;;;;;;10.95;3.30;;;;;;;;;;4970625;28;20061;-74
2022/06/12 14:16:56;;;;;;;11.50;3.45;;;;;;;;;;4971632;28;20046;-75
2022/06/12 14:19:27;;;;;;;11.68;3.55;;;;;;;;;;4967838;28;20058;-74
2022/06/12 14:22:00;;;;;;;10.77;3.40;;;;;;;;;;4965699;28;20526;-74
2022/06/12 14:24:29;;;;;;;12.02;3.70;;;;;;;;;;4968423;28;20112;-74
2022/06/12 14:26:56;;;;;;;13.70;3.53;;;;;;;;;;4971805;28;20062;-74
2022/06/12 14:29:43;;;;;;;10.00;3.25;;;;;;;;;;4969609;28;20059;-74
2022/06/12 14:32:22;;;;;;;12.40;3.50;;;;;;;;;;4965888;28;20057;-74
2022/06/12 14:35:01;;;;;;;11.05;3.40;;;;;;;;;;4972050;28;20050;-75
2022/06/12 14:37:29;;;;;;;10.30;3.55;;;;;;;;;;4969392;28;20042;-75
2022/06/12 14:39:57;;;;;;;14.48;3.72;;;;;;;;;;4969775;28;20054;-74
2022/06/12 14:42:25;;;;;;;12.43;3.40;;;;;;;;;;4969718;28;20054;-74
2022/06/12 14:44:54;;;;;;;11.20;3.65;;;;;;;;;;4970681;28;20054;-75
2022/06/12 14:47:24;;;;;;;9.63;2.90;;;;;;;;;;4969807;28;20536;-75
2022/06/12 14:49:52;;;;;;;12.48;3.75;;;;;;;;;;4963753;28;20069;-75
2022/06/12 14:52:22;;;;;;;10.38;3.20;;;;;;;;;;4962289;28;20509;-75
2022/06/12 14:54:50;;;;;;;11.18;3.63;;;;;;;;;;4970620;28;20072;-75
2022/06/12 14:57:17;;;;;;;12.57;3.78;;;;;;;;;;4969398;28;20053;-75
2022/06/12 14:59:45;;;;;;;12.18;3.20;;;;;;;;;;4968455;28;20106;-75
2022/06/12 15:02:17;;;;;;;9.85;3.20;;;;;;;;;;4970358;28;20058;-72